createdAt,value
2022-11-14T00:01:00.111Z,13.90
2022-11-14T00:03:26.826Z,13.10
2022-11-14T00:05:53.495Z,13.55
2022-11-14T00:08:22.469Z,13.30
2022-11-14T00:10:51.146Z,13.55
2022-11-14T00:13:19.394Z,13.82
2022-11-14T00:15:50.288Z,13.20
2022-11-14T00:18:17.914Z,13.70
2022-11-14T00:20:48.396Z,14.02
2022-11-14T00:23:15.123Z,13.95
2022-11-14T00:25:41.891Z,13.98
2022-11-14T00:28:09.185Z,13.38
2022-11-14T00:30:35.856Z,13.02
2022-11-14T00:33:02.519Z,13.35
2022-11-14T00:35:29.175Z,13.57
2022-11-14T00:37:55.872Z,14.07
2022-11-14T00:40:22.552Z,13.93
2022-11-14T00:42:49.327Z,14.45
2022-11-14T00:45:16.270Z,13.90
2022-11-14T00:47:42.997Z,14.00
2022-11-14T00:50:10.473Z,15.02
2022-11-14T00:52:37.200Z,14.85
2022-11-14T00:55:04.304Z,14.48
2022-11-14T00:57:31.034Z,14.70
2022-11-14T00:59:57.731Z,14.27
2022-11-14T01:02:24.699Z,14.43
2022-11-14T01:04:51.614Z,14.38
2022-11-14T01:07:18.419Z,15.93
2022-11-14T01:09:45.162Z,13.82
2022-11-14T01:12:11.820Z,13.80
2022-11-14T01:14:40.213Z,15.35
2022-11-14T01:17:07.796Z,15.57
2022-11-14T01:19:35.050Z,14.43
2022-11-14T01:22:06.149Z,13.57
2022-11-14T01:24:34.443Z,14.52
2022-11-14T01:27:01.666Z,15.05
2022-11-14T01:29:28.747Z,14.50
2022-11-14T01:31:56.046Z,14.52
2022-11-14T01:34:23.370Z,14.80
2022-11-14T01:36:50.194Z,15.73
2022-11-14T01:39:17.005Z,15.30
2022-11-14T01:41:43.808Z,15.00
2022-11-14T01:44:16.366Z,15.25
2022-11-14T01:46:47.305Z,14.30
2022-11-14T01:49:35.732Z,15.82
2022-11-14T01:52:04.690Z,14.65
2022-11-14T01:54:36.918Z,14.75
2022-11-14T01:57:05.264Z,14.50
2022-11-14T01:59:37.687Z,14.15
2022-11-14T02:02:10.290Z,14.77
2022-11-14T02:04:42.661Z,15.80
2022-11-14T02:07:10.156Z,14.68
2022-11-14T02:09:39.840Z,15.75
2022-11-14T02:12:09.745Z,14.85
2022-11-14T02:14:37.818Z,14.05
2022-11-14T02:17:28.398Z,15.65
2022-11-14T02:19:55.506Z,14.63
2022-11-14T02:22:22.186Z,15.05
2022-11-14T02:24:48.949Z,15.15
2022-11-14T02:27:16.863Z,15.15
2022-11-14T02:29:43.532Z,14.85
2022-11-14T02:32:11.006Z,15.68
2022-11-14T02:34:38.605Z,16.30
2022-11-14T02:37:06.071Z,15.32
2022-11-14T02:39:32.820Z,15.07
2022-11-14T02:41:59.630Z,14.70
2022-11-14T02:44:26.476Z,14.57
2022-11-14T02:46:53.371Z,14.45
2022-11-14T02:49:20.327Z,14.43
2022-11-14T02:51:47.004Z,14.35
2022-11-14T02:54:13.931Z,14.88
2022-11-14T02:56:40.585Z,16.75
2022-11-14T02:59:07.227Z,15.05
2022-11-14T03:01:34.043Z,14.68
2022-11-14T03:04:00.835Z,14.68
2022-11-14T03:06:27.695Z,15.27
2022-11-14T03:08:54.352Z,17.30
2022-11-14T03:11:21.076Z,15.55
2022-11-14T03:13:47.911Z,14.65
2022-11-14T03:16:14.905Z,14.93
2022-11-14T03:18:41.611Z,15.13
2022-11-14T03:21:14.373Z,14.65
2022-11-14T03:23:41.428Z,15.65
2022-11-14T03:26:10.236Z,15.20
2022-11-14T03:28:38.221Z,14.88
2022-11-14T03:31:05.547Z,15.38
2022-11-14T03:33:33.373Z,14.95
2022-11-14T03:36:00.187Z,15.35
2022-11-14T03:38:27.161Z,15.02
2022-11-14T03:40:54.067Z,15.07
2022-11-14T03:43:21.802Z,15.18
2022-11-14T03:45:48.626Z,14.50
2022-11-14T03:48:15.641Z,15.35
2022-11-14T03:50:43.724Z,14.15
2022-11-14T03:53:11.303Z,15.35
2022-11-14T03:55:38.900Z,15.48
2022-11-14T03:58:05.683Z,14.48
2022-11-14T04:00:32.478Z,14.85
2022-11-14T04:02:59.253Z,16.50
2022-11-14T04:05:25.990Z,14.98
2022-11-14T04:07:52.641Z,16.23
2022-11-14T04:10:19.396Z,16.95
2022-11-14T04:12:50.606Z,18.10
2022-11-14T04:15:18.751Z,16.52
2022-11-14T04:17:46.513Z,17.02
2022-11-14T04:20:14.550Z,17.52
2022-11-14T04:22:41.273Z,17.30
2022-11-14T04:25:09.127Z,18.98
2022-11-14T04:27:35.829Z,17.27
2022-11-14T04:30:03.080Z,17.65
2022-11-14T04:32:29.876Z,17.65
2022-11-14T04:34:56.602Z,17.35
2022-11-14T04:37:23.495Z,15.75
2022-11-14T04:39:50.295Z,15.75
2022-11-14T04:42:17.049Z,17.00
2022-11-14T04:44:43.827Z,16.42
2022-11-14T04:47:10.656Z,16.92
2022-11-14T04:49:37.311Z,16.23
2022-11-14T04:52:05.377Z,16.67
2022-11-14T04:54:32.101Z,17.00
2022-11-14T04:56:58.843Z,18.05
2022-11-14T04:59:25.615Z,16.25
2022-11-14T05:04:20.164Z,20.08
2022-11-14T05:06:46.891Z,18.52
2022-11-14T05:09:13.575Z,17.80
2022-11-14T05:11:40.261Z,17.35
2022-11-14T05:14:07.280Z,20.33
2022-11-14T05:16:34.022Z,18.45
2022-11-14T05:19:00.737Z,19.08
2022-11-14T05:21:28.150Z,18.05
2022-11-14T05:23:54.866Z,20.00
2022-11-14T05:26:21.594Z,20.33
2022-11-14T05:28:49.371Z,21.67
2022-11-14T05:31:18.875Z,20.35
2022-11-14T05:33:46.871Z,21.75
2022-11-14T05:36:16.928Z,17.27
2022-11-14T05:38:46.801Z,17.60
2022-11-14T05:41:15.954Z,18.40
2022-11-14T05:43:42.992Z,18.77
2022-11-14T05:46:11.784Z,18.95
2022-11-14T05:48:39.138Z,19.67
2022-11-14T05:51:07.635Z,17.83
2022-11-14T05:53:34.967Z,18.20
2022-11-14T05:56:06.667Z,15.50
2022-11-14T05:58:35.182Z,17.35
2022-11-14T06:01:03.172Z,16.80
2022-11-14T06:03:38.266Z,16.17
2022-11-14T06:06:07.119Z,16.00
2022-11-14T06:08:34.782Z,17.33
2022-11-14T06:11:10.025Z,16.85
2022-11-14T06:13:37.318Z,14.73
2022-11-14T06:16:07.300Z,17.05
2022-11-14T06:18:34.944Z,15.60
2022-11-14T06:21:11.848Z,15.45
2022-11-14T06:23:38.922Z,14.95
2022-11-14T06:26:07.993Z,17.20
2022-11-14T06:28:34.760Z,14.38
2022-11-14T06:31:03.053Z,16.45
2022-11-14T06:33:34.205Z,15.63
2022-11-14T06:38:31.471Z,19.00
2022-11-14T06:41:19.199Z,16.83
2022-11-14T06:43:48.620Z,15.98
2022-11-14T06:46:18.249Z,16.35
2022-11-14T06:48:46.432Z,16.83
2022-11-14T06:51:14.837Z,15.75
2022-11-14T06:53:42.359Z,15.75
2022-11-14T06:56:10.596Z,14.90
2022-11-14T06:58:39.998Z,18.60
2022-11-14T07:01:12.125Z,16.30
2022-11-14T07:03:38.864Z,15.15
2022-11-14T07:06:06.988Z,14.93
2022-11-14T07:08:34.524Z,16.23
2022-11-14T07:11:10.078Z,14.13
2022-11-14T07:13:37.707Z,13.05
2022-11-14T07:16:05.288Z,14.10
2022-11-14T07:18:33.670Z,15.55
2022-11-14T07:21:03.299Z,13.20
2022-11-14T07:23:31.945Z,15.02
2022-11-14T07:26:03.186Z,13.20
2022-11-14T07:28:30.375Z,13.40
2022-11-14T07:30:57.328Z,14.02
2022-11-14T07:33:24.096Z,14.63
2022-11-14T07:35:51.551Z,17.08
2022-11-14T07:38:18.242Z,14.52
2022-11-14T07:41:00.420Z,16.23
2022-11-14T07:43:28.429Z,14.98
2022-11-14T07:46:02.479Z,14.95
2022-11-14T07:48:32.240Z,14.80
2022-11-14T07:51:04.149Z,14.80
2022-11-14T07:53:31.692Z,14.10
2022-11-14T07:56:03.960Z,15.80
2022-11-14T07:58:31.006Z,16.58
2022-11-14T08:01:04.661Z,14.82
2022-11-14T08:03:31.664Z,13.65
2022-11-14T08:06:07.451Z,16.90
2022-11-14T08:08:34.715Z,16.40
2022-11-14T08:11:01.957Z,15.02
2022-11-14T08:13:33.608Z,14.90
2022-11-14T08:16:12.953Z,14.57
2022-11-14T08:18:40.896Z,14.32
2022-11-14T08:21:07.887Z,13.77
2022-11-14T08:23:34.640Z,16.02
2022-11-14T08:26:01.443Z,14.60
2022-11-14T08:28:28.785Z,15.07
2022-11-14T08:31:04.408Z,16.33
2022-11-14T08:33:31.568Z,15.18
2022-11-14T08:36:06.352Z,16.30
2022-11-14T08:38:34.433Z,17.17
2022-11-14T08:41:01.893Z,18.10
2022-11-14T08:43:29.459Z,16.35
2022-11-14T08:46:04.482Z,18.25
2022-11-14T08:48:32.617Z,17.20
2022-11-14T08:51:05.010Z,17.38
2022-11-14T08:53:32.624Z,18.20
2022-11-14T08:55:59.366Z,17.63
2022-11-14T08:58:30.169Z,16.95
2022-11-14T09:01:08.357Z,16.70
2022-11-14T09:03:35.090Z,17.92
2022-11-14T09:06:02.581Z,16.67
2022-11-14T09:08:30.654Z,16.92
2022-11-14T09:11:05.313Z,23.08
2022-11-14T09:13:34.815Z,18.50
2022-11-14T09:16:02.109Z,18.58
2022-11-14T09:18:30.255Z,19.83
2022-11-14T09:21:05.413Z,18.63
2022-11-14T09:23:32.732Z,19.13
2022-11-14T09:26:06.946Z,20.25
2022-11-14T09:28:33.777Z,18.95
2022-11-14T09:31:02.343Z,20.30
2022-11-14T09:33:29.468Z,18.70
2022-11-14T09:36:01.369Z,18.80
2022-11-14T09:38:28.333Z,19.83
2022-11-14T09:41:04.034Z,18.83
2022-11-14T09:43:52.357Z,18.77
2022-11-14T09:46:27.759Z,19.48
2022-11-14T09:48:54.724Z,19.17
2022-11-14T09:51:32.979Z,20.50
2022-11-14T09:54:18.323Z,22.73
2022-11-14T09:56:45.057Z,20.73
2022-11-14T09:59:14.188Z,22.63
2022-11-14T10:01:57.723Z,23.08
2022-11-14T10:04:50.325Z,21.85
2022-11-14T10:07:54.113Z,24.50
2022-11-14T10:11:07.596Z,23.20
2022-11-14T10:13:56.297Z,20.88
2022-11-14T10:16:48.113Z,22.52
2022-11-14T10:19:20.811Z,21.85
2022-11-14T10:22:11.792Z,23.42
2022-11-14T10:24:48.765Z,23.75
2022-11-14T10:27:31.002Z,21.75
2022-11-14T10:30:03.704Z,20.27
2022-11-14T10:32:59.371Z,20.45
2022-11-14T10:35:36.626Z,21.55
2022-11-14T10:38:22.959Z,20.33
2022-11-14T10:40:52.866Z,21.92
2022-11-14T10:43:32.227Z,21.15
2022-11-14T10:46:38.842Z,20.05
2022-11-14T10:49:25.550Z,22.00
2022-11-14T10:51:59.624Z,19.02
2022-11-14T10:54:40.926Z,19.95
2022-11-14T10:57:17.663Z,20.48
2022-11-14T10:59:44.512Z,19.13
2022-11-14T11:02:11.594Z,20.40
2022-11-14T11:04:41.017Z,19.33
2022-11-14T11:07:07.664Z,20.00
2022-11-14T11:09:55.705Z,20.50
2022-11-14T11:12:25.471Z,19.90
2022-11-14T11:15:20.015Z,18.52
2022-11-14T11:18:26.807Z,19.88
2022-11-14T11:21:05.647Z,19.73
2022-11-14T11:23:32.710Z,20.08
2022-11-14T11:26:20.654Z,18.73
2022-11-14T11:29:01.766Z,19.58
2022-11-14T11:33:55.907Z,18.25
2022-11-14T11:36:24.943Z,18.45
2022-11-14T11:38:51.713Z,20.48
2022-11-14T11:44:35.067Z,20.08
2022-11-14T11:47:04.173Z,18.70
2022-11-14T11:49:30.905Z,20.27
2022-11-14T11:52:04.814Z,18.33
2022-11-14T11:54:46.343Z,17.98
2022-11-14T11:57:21.749Z,17.42
2022-11-14T11:59:55.528Z,18.40
2022-11-14T12:02:25.707Z,18.60
2022-11-14T12:04:55.936Z,18.10
2022-11-14T12:07:36.218Z,17.02
2022-11-14T12:10:17.391Z,16.92
2022-11-14T12:12:44.147Z,16.10
2022-11-14T12:15:25.700Z,15.80
2022-11-14T12:18:16.654Z,16.80
2022-11-14T12:20:54.855Z,16.88
2022-11-14T12:23:27.549Z,16.25
2022-11-14T12:26:28.351Z,17.58
2022-11-14T12:29:22.655Z,16.08
2022-11-14T12:31:58.852Z,16.05
2022-11-14T12:34:28.853Z,16.70
2022-11-14T12:36:55.785Z,16.55
2022-11-14T12:39:28.809Z,15.25
2022-11-14T12:42:07.199Z,17.52
2022-11-14T12:44:39.238Z,17.40
2022-11-14T12:47:06.018Z,15.70
2022-11-14T12:50:00.253Z,14.73
2022-11-14T12:52:48.764Z,15.60
2022-11-14T12:55:18.681Z,14.95
2022-11-14T12:58:09.114Z,14.30
2022-11-14T13:01:15.814Z,12.82
2022-11-14T13:03:58.509Z,14.13
2022-11-14T13:06:27.632Z,16.15
2022-11-14T13:09:23.380Z,16.90
2022-11-14T13:12:08.791Z,14.93
2022-11-14T13:15:14.155Z,14.57
2022-11-14T13:17:59.799Z,15.63
2022-11-14T13:21:14.028Z,14.05
2022-11-14T13:23:43.401Z,16.10
2022-11-14T13:26:13.721Z,15.43
2022-11-14T13:28:49.939Z,15.10
2022-11-14T13:31:16.783Z,14.70
2022-11-14T13:33:45.086Z,14.95
2022-11-14T13:36:43.694Z,16.05
2022-11-14T13:39:16.480Z,14.98
2022-11-14T13:42:02.169Z,15.23
2022-11-14T13:44:47.504Z,13.60
2022-11-14T13:47:55.725Z,14.50
2022-11-14T13:50:37.114Z,15.30
2022-11-14T13:53:14.744Z,15.13
2022-11-14T13:55:47.670Z,15.68
2022-11-14T13:58:38.440Z,15.85
2022-11-14T14:01:16.943Z,16.08
2022-11-14T14:04:07.204Z,15.18
2022-11-14T14:06:38.329Z,16.07
2022-11-14T14:09:23.827Z,15.10
2022-11-14T14:11:50.506Z,16.15
2022-11-14T14:14:20.008Z,16.23
2022-11-14T14:16:55.921Z,16.27
2022-11-14T14:19:28.719Z,19.30
2022-11-14T14:22:04.130Z,17.73
2022-11-14T14:24:51.913Z,18.33
2022-11-14T14:27:44.976Z,16.27
2022-11-14T14:30:16.444Z,17.67
2022-11-14T14:32:43.188Z,15.65
2022-11-14T14:35:32.581Z,16.15
2022-11-14T14:38:02.613Z,16.48
2022-11-14T14:40:35.238Z,15.52
2022-11-14T14:43:05.134Z,16.10
2022-11-14T14:45:45.566Z,16.60
2022-11-14T14:48:20.873Z,16.98
2022-11-14T14:50:56.163Z,18.77
2022-11-14T14:53:29.957Z,16.60
2022-11-14T14:56:01.968Z,17.25
2022-11-14T14:58:31.731Z,17.27
2022-11-14T15:01:00.786Z,21.00
2022-11-14T15:03:38.536Z,18.50
2022-11-14T15:06:30.869Z,17.23
2022-11-14T15:09:16.880Z,16.92
2022-11-14T15:11:46.553Z,15.95
2022-11-14T15:14:19.482Z,16.73
2022-11-14T15:16:50.024Z,17.08
2022-11-14T15:19:37.566Z,17.98
2022-11-14T15:22:25.866Z,17.45
2022-11-14T15:25:11.569Z,17.33
2022-11-14T15:27:47.542Z,16.83
2022-11-14T15:30:34.672Z,17.70
2022-11-14T15:33:04.524Z,16.92
2022-11-14T15:35:34.405Z,15.80
2022-11-14T15:38:36.799Z,17.42
2022-11-14T15:41:21.599Z,17.50
2022-11-14T15:43:50.900Z,16.27
2022-11-14T15:46:37.527Z,16.05
2022-11-14T15:49:14.069Z,16.83
2022-11-14T15:51:45.327Z,15.77
2022-11-14T15:54:31.812Z,16.77
2022-11-14T15:57:16.615Z,16.88
2022-11-14T15:59:44.597Z,15.85
2022-11-14T16:02:22.676Z,15.98
2022-11-14T16:04:52.218Z,17.17
2022-11-14T16:07:20.191Z,16.75
2022-11-14T16:09:47.172Z,15.45
2022-11-14T16:12:14.545Z,16.23
2022-11-14T16:14:41.680Z,16.67
2022-11-14T16:17:16.559Z,15.85
2022-11-14T16:19:44.063Z,15.20
2022-11-14T16:22:15.797Z,21.38
2022-11-14T16:24:42.525Z,17.23
2022-11-14T16:27:09.726Z,16.17
2022-11-14T16:29:37.846Z,16.92
2022-11-14T16:32:04.819Z,16.90
2022-11-14T16:34:31.711Z,16.35
2022-11-14T16:37:00.564Z,16.38
2022-11-14T16:39:27.527Z,16.00
2022-11-14T16:42:00.500Z,17.45
2022-11-14T16:44:27.595Z,16.55
2022-11-14T16:46:54.508Z,16.50
2022-11-14T16:49:21.390Z,18.80
2022-11-14T16:51:50.628Z,16.70
2022-11-14T16:54:21.187Z,16.73
2022-11-14T16:56:48.468Z,16.17
2022-11-14T16:59:15.475Z,17.45
2022-11-14T17:01:42.517Z,16.30
2022-11-14T17:04:09.366Z,15.27
2022-11-14T17:06:36.143Z,17.70
2022-11-14T17:09:03.306Z,19.70
2022-11-14T17:11:30.437Z,19.77
2022-11-14T17:13:57.316Z,16.98
2022-11-14T17:16:24.788Z,16.27
2022-11-14T17:18:53.915Z,16.17
2022-11-14T17:21:21.826Z,15.70
2022-11-14T17:23:57.122Z,15.77
2022-11-14T17:26:24.233Z,16.38
2022-11-14T17:28:51.219Z,15.85
2022-11-14T17:31:18.383Z,16.48
2022-11-14T17:33:51.621Z,16.33
2022-11-14T17:36:18.751Z,15.60
2022-11-14T17:38:45.451Z,16.58
2022-11-14T17:41:12.224Z,18.13
2022-11-14T17:43:40.892Z,18.65
2022-11-14T17:46:15.364Z,18.95
2022-11-14T17:48:44.115Z,17.98
2022-11-14T17:51:13.058Z,16.77
2022-11-14T17:53:40.819Z,17.48
2022-11-14T17:56:09.249Z,17.60
2022-11-14T17:58:36.048Z,17.58
2022-11-14T18:01:08.488Z,18.42
2022-11-14T18:03:35.724Z,16.30
2022-11-14T18:06:16.538Z,17.13
2022-11-14T18:08:43.322Z,18.92
2022-11-14T18:11:12.281Z,18.35
2022-11-14T18:13:40.099Z,17.17
2022-11-14T18:16:14.400Z,18.90
2022-11-14T18:18:41.459Z,18.38
2022-11-14T18:21:09.496Z,18.25
2022-11-14T18:23:36.263Z,18.17
2022-11-14T18:26:10.532Z,17.48
2022-11-14T18:28:37.397Z,17.42
2022-11-14T18:31:08.957Z,17.33
2022-11-14T18:33:36.095Z,16.95
2022-11-14T18:36:04.398Z,17.70
2022-11-14T18:38:33.043Z,17.90
2022-11-14T18:41:01.503Z,17.88
2022-11-14T18:43:32.213Z,17.10
2022-11-14T18:46:33.107Z,17.98
2022-11-14T18:49:02.868Z,22.42
2022-11-14T18:51:31.375Z,18.30
2022-11-14T18:54:01.340Z,18.00
2022-11-14T18:56:28.077Z,17.35
2022-11-14T18:58:56.451Z,18.30
2022-11-14T19:01:29.515Z,15.90
2022-11-14T19:04:00.441Z,17.15
2022-11-14T19:06:28.421Z,17.75
2022-11-14T19:09:08.148Z,17.35
2022-11-14T19:11:56.377Z,16.45
2022-11-14T19:14:23.197Z,17.23
2022-11-14T19:16:49.937Z,16.15
2022-11-14T19:19:16.670Z,15.50
2022-11-14T19:21:43.921Z,14.90
2022-11-14T19:24:10.862Z,15.15
2022-11-14T19:26:37.668Z,15.68
2022-11-14T19:29:06.896Z,15.38
2022-11-14T19:31:33.950Z,16.20
2022-11-14T19:34:00.805Z,15.23
2022-11-14T19:36:53.113Z,15.70
2022-11-14T19:39:14.936Z,15.90
2022-11-14T19:41:41.719Z,15.75
2022-11-14T19:44:08.778Z,14.95
2022-11-14T19:46:36.781Z,14.75
2022-11-14T19:49:04.055Z,15.70
2022-11-14T19:51:32.808Z,16.17
2022-11-14T19:54:01.281Z,16.77
2022-11-14T19:56:28.175Z,16.20
2022-11-14T19:58:56.501Z,19.67
2022-11-14T20:01:26.313Z,21.90
2022-11-14T20:03:57.514Z,13.98
2022-11-14T20:06:34.015Z,15.45
2022-11-14T20:09:04.957Z,15.35
2022-11-14T20:13:59.901Z,15.00
2022-11-14T20:16:30.333Z,14.52
2022-11-14T20:19:00.618Z,14.75
2022-11-14T20:21:30.006Z,15.23
2022-11-14T20:23:56.832Z,14.63
2022-11-14T20:26:23.912Z,15.40
2022-11-14T20:28:52.948Z,14.80
2022-11-14T20:31:25.252Z,14.70
2022-11-14T20:33:53.552Z,16.20
2022-11-14T20:36:22.386Z,14.82
2022-11-14T20:38:49.826Z,14.95
2022-11-14T20:41:17.483Z,15.35
2022-11-14T20:43:44.890Z,14.85
2022-11-14T20:46:14.788Z,16.25
2022-11-14T20:48:42.577Z,15.10
2022-11-14T20:51:21.562Z,16.52
2022-11-14T20:53:49.923Z,18.10
2022-11-14T20:56:17.446Z,16.65
2022-11-14T20:58:45.392Z,16.33
2022-11-14T21:01:12.774Z,15.98
2022-11-14T21:03:40.216Z,16.15
2022-11-14T21:06:08.359Z,15.13
2022-11-14T21:08:36.137Z,14.95
2022-11-14T21:11:05.563Z,15.02
2022-11-14T21:13:54.153Z,15.85
2022-11-14T21:16:22.207Z,16.08
2022-11-14T21:18:53.635Z,15.07
2022-11-14T21:21:23.642Z,15.32
2022-11-14T21:23:51.345Z,16.13
2022-11-14T21:26:24.167Z,17.25
2022-11-14T21:28:54.475Z,15.80
2022-11-14T21:31:23.914Z,15.80
2022-11-14T21:33:53.964Z,14.57
2022-11-14T21:39:08.013Z,15.70
2022-11-14T21:41:34.695Z,17.02
2022-11-14T21:44:03.033Z,15.10
2022-11-14T21:46:29.768Z,17.10
2022-11-14T21:48:57.618Z,15.45
2022-11-14T21:51:26.383Z,16.02
2022-11-14T21:53:55.641Z,14.75
2022-11-14T21:56:28.073Z,15.35
2022-11-14T21:59:12.618Z,14.65
2022-11-14T22:02:03.071Z,16.13
2022-11-14T22:04:31.239Z,13.90
2022-11-14T22:06:59.279Z,14.57
2022-11-14T22:09:29.435Z,15.63
2022-11-14T22:11:56.952Z,14.37
2022-11-14T22:14:23.995Z,14.98
2022-11-14T22:16:50.724Z,14.32
2022-11-14T22:19:18.797Z,14.45
2022-11-14T22:21:45.596Z,14.40
2022-11-14T22:24:12.320Z,13.88
2022-11-14T22:26:40.370Z,14.93
2022-11-14T22:29:08.246Z,14.15
2022-11-14T22:31:35.372Z,13.75
2022-11-14T22:34:02.396Z,18.35
2022-11-14T22:36:29.437Z,15.68
2022-11-14T22:38:57.031Z,13.98
2022-11-14T22:41:32.344Z,14.45
2022-11-14T22:44:01.083Z,14.23
2022-11-14T22:46:28.573Z,13.77
2022-11-14T22:48:55.471Z,13.55
2022-11-14T22:51:27.448Z,12.30
2022-11-14T22:53:56.586Z,14.95
2022-11-14T22:56:25.717Z,13.20
2022-11-14T22:58:52.479Z,12.70
2022-11-14T23:01:24.322Z,12.25
2022-11-14T23:03:58.790Z,12.60
2022-11-14T23:06:26.808Z,12.00
2022-11-14T23:08:53.998Z,11.98
2022-11-14T23:11:23.950Z,13.90
2022-11-14T23:13:53.267Z,12.95
2022-11-14T23:16:26.060Z,12.82
2022-11-14T23:18:57.101Z,12.20
2022-11-14T23:21:26.925Z,12.40
2022-11-14T23:23:55.316Z,13.43
2022-11-14T23:26:22.767Z,11.80
2022-11-14T23:28:49.566Z,12.63
2022-11-14T23:31:19.559Z,12.20
2022-11-14T23:33:51.295Z,12.10
2022-11-14T23:36:18.090Z,12.43
2022-11-14T23:38:45.000Z,12.55
2022-11-14T23:41:20.139Z,11.50
2022-11-14T23:43:47.627Z,12.82
2022-11-14T23:46:14.844Z,12.13
2022-11-14T23:48:42.064Z,11.48
2022-11-14T23:51:09.811Z,11.90
2022-11-14T23:53:36.659Z,13.38
2022-11-14T23:56:03.577Z,11.15
2022-11-14T23:58:30.981Z,11.18
